Time;durP1;ratioP1;P1;durP2;ratioP2;P2;SDS_P1;SDS_P2;PMS_P1;PMS_P2;Temp;Humidity;BMP_temperature;BMP_pressure;BME280_temperature;BME280_humidity;BME280_pressure;Samples;Min_cycle;Max_cycle;Signal;HPM_P1;HPM_P2
2022/01/19 00:02:17;;;;;;;12.73;6.07;;;;;;;;;;4991019;28;20419;-68
2022/01/19 00:04:42;;;;;;;12.75;5.35;;;;;;;;;;4977250;28;20034;-68
2022/01/19 00:07:07;;;;;;;10.60;5.50;;;;;;;;;;4991015;28;20062;-68
2022/01/19 00:09:33;;;;;;;10.20;5.15;;;;;;;;;;4989684;28;20034;-68
2022/01/19 00:11:58;;;;;;;11.50;5.45;;;;;;;;;;4991571;28;20018;-69
2022/01/19 00:14:23;;;;;;;17.80;5.85;;;;;;;;;;4990981;28;20420;-68
2022/01/19 00:16:48;;;;;;;14.07;5.87;;;;;;;;;;4991399;28;20044;-68
2022/01/19 00:19:13;;;;;;;17.70;6.47;;;;;;;;;;4989485;28;20269;-68
2022/01/19 00:21:38;;;;;;;14.85;6.25;;;;;;;;;;4991649;28;20065;-68
2022/01/19 00:24:04;;;;;;;12.57;6.00;;;;;;;;;;4990602;28;20085;-68
2022/01/19 00:26:29;;;;;;;15.52;6.78;;;;;;;;;;4977344;28;20266;-68
2022/01/19 00:28:55;;;;;;;13.35;6.55;;;;;;;;;;4988228;28;20041;-68
2022/01/19 00:31:20;;;;;;;13.18;5.80;;;;;;;;;;4990110;28;20034;-68
2022/01/19 00:33:45;;;;;;;13.45;5.95;;;;;;;;;;4990802;28;20031;-68
2022/01/19 00:36:10;;;;;;;16.17;6.43;;;;;;;;;;4990840;28;20479;-68
2022/01/19 00:38:36;;;;;;;14.17;5.87;;;;;;;;;;4989874;28;20026;-68
2022/01/19 00:41:02;;;;;;;15.88;6.65;;;;;;;;;;4990464;28;20265;-68
2022/01/19 00:43:27;;;;;;;13.27;6.20;;;;;;;;;;4990572;28;20034;-68
2022/01/19 00:45:52;;;;;;;15.95;7.10;;;;;;;;;;4990734;28;20076;-68
2022/01/19 00:48:17;;;;;;;15.63;6.60;;;;;;;;;;4990422;28;20497;-68
2022/01/19 00:50:43;;;;;;;16.10;5.93;;;;;;;;;;4990532;28;20026;-68
2022/01/19 00:53:08;;;;;;;15.45;6.68;;;;;;;;;;4988849;28;20038;-68
2022/01/19 00:55:33;;;;;;;14.73;6.05;;;;;;;;;;4990816;28;20022;-68
2022/01/19 00:57:58;;;;;;;15.43;5.85;;;;;;;;;;4990022;28;20041;-68
2022/01/19 01:00:26;;;;;;;17.52;6.13;;;;;;;;;;4990507;28;20044;-68
2022/01/19 01:02:51;;;;;;;18.25;6.10;;;;;;;;;;4989615;28;20104;-68
2022/01/19 01:05:17;;;;;;;18.20;6.88;;;;;;;;;;4990600;28;20042;-68
2022/01/19 01:07:42;;;;;;;12.65;6.25;;;;;;;;;;4990721;28;20026;-67
2022/01/19 01:10:08;;;;;;;9.43;5.32;;;;;;;;;;4990584;28;20439;-67
2022/01/19 01:12:46;;;;;;;12.80;6.03;;;;;;;;;;4990448;28;20577;-67
2022/01/19 01:15:30;;;;;;;11.38;6.28;;;;;;;;;;4989618;28;20542;-67
2022/01/19 01:20:38;;;;;;;12.68;6.22;;;;;;;;;;4989844;28;20148;-68
2022/01/19 01:23:04;;;;;;;14.52;6.22;;;;;;;;;;4990314;28;20022;-68
2022/01/19 01:25:30;;;;;;;10.75;5.80;;;;;;;;;;4989179;28;20015;-68
2022/01/19 01:27:55;;;;;;;11.07;5.82;;;;;;;;;;4990177;28;20021;-67
2022/01/19 01:30:20;;;;;;;11.63;4.85;;;;;;;;;;4989932;28;20471;-67
2022/01/19 01:32:46;;;;;;;14.45;5.43;;;;;;;;;;4989970;28;20103;-67
2022/01/19 01:35:11;;;;;;;14.25;5.72;;;;;;;;;;4990467;28;20043;-67
2022/01/19 01:37:37;;;;;;;13.85;5.55;;;;;;;;;;4989788;28;20035;-67
2022/01/19 01:40:03;;;;;;;11.57;5.05;;;;;;;;;;4990711;28;20015;-67
2022/01/19 01:42:29;;;;;;;10.10;5.22;;;;;;;;;;4989898;28;20608;-67
2022/01/19 01:44:58;;;;;;;8.23;4.88;;;;;;;;;;4993072;28;20129;-67
2022/01/19 01:47:25;;;;;;;9.35;5.00;;;;;;;;;;4993527;28;20116;-67
2022/01/19 01:54:59;;;;;;;3.80;1.67;;;;;;;;;;4993400;28;20284;-68
2022/01/19 01:57:24;;;;;;;3.47;2.42;;;;;;;;;;4993287;28;20038;-68
2022/01/19 01:59:50;;;;;;;9.13;3.90;;;;;;;;;;4993532;28;20360;-67
2022/01/19 02:02:15;;;;;;;3.17;2.17;;;;;;;;;;4994074;28;20479;-68
2022/01/19 02:04:41;;;;;;;2.67;1.80;;;;;;;;;;4993282;28;20117;-67
2022/01/19 02:10:05;;;;;;;8.68;4.63;;;;;;;;;;4985263;28;20109;-67
2022/01/19 02:25:52;;;;;;;6.60;2.93;;;;;;;;;;4993322;28;20026;-68
2022/01/19 02:41:40;;;;;;;7.75;4.07;;;;;;;;;;4989308;28;20021;-67
2022/01/19 02:44:08;;;;;;;3.95;2.80;;;;;;;;;;4992993;28;20029;-67
2022/01/19 02:49:14;;;;;;;4.05;2.30;;;;;;;;;;4993438;28;20467;-67
2022/01/19 02:49:21;;;;;;;3.03;2.15;;;;;;;;;;4992255;28;20072;-67
2022/01/19 02:51:48;;;;;;;7.07;4.30;;;;;;;;;;4992948;28;20034;-68
2022/01/19 02:54:13;;;;;;;7.25;4.07;;;;;;;;;;4992395;28;20022;-67
2022/01/19 02:56:41;;;;;;;5.15;2.90;;;;;;;;;;4992168;28;20482;-67
2022/01/19 03:00:01;;;;;;;6.55;3.08;;;;;;;;;;4992729;28;20375;-67
2022/01/19 03:10:09;;;;;;;5.18;2.90;;;;;;;;;;4985550;28;20053;-67
2022/01/19 03:12:34;;;;;;;5.90;3.72;;;;;;;;;;4992709;28;20467;-67
2022/01/19 03:14:59;;;;;;;6.53;3.50;;;;;;;;;;4991813;28;20026;-67
2022/01/19 03:17:24;;;;;;;7.78;4.63;;;;;;;;;;4992297;28;20019;-67
2022/01/19 03:19:50;;;;;;;6.70;4.83;;;;;;;;;;4992549;28;20046;-68
2022/01/19 03:22:18;;;;;;;9.52;5.18;;;;;;;;;;4992282;28;20262;-67
2022/01/19 03:24:49;;;;;;;4.88;3.35;;;;;;;;;;4991619;28;20018;-67
2022/01/19 03:27:15;;;;;;;4.38;2.78;;;;;;;;;;4992021;28;20031;-67
2022/01/19 03:29:40;;;;;;;5.35;3.58;;;;;;;;;;4991958;28;20033;-67
2022/01/19 03:32:06;;;;;;;17.17;4.05;;;;;;;;;;4992087;28;20029;-67
2022/01/19 03:34:31;;;;;;;7.18;4.47;;;;;;;;;;4992070;28;20048;-67
2022/01/19 03:36:56;;;;;;;8.88;4.20;;;;;;;;;;4991266;28;20023;-67
2022/01/19 03:39:22;;;;;;;8.57;4.28;;;;;;;;;;4992084;28;20050;-68
2022/01/19 03:41:47;;;;;;;9.00;5.05;;;;;;;;;;4991645;28;20018;-67
2022/01/19 03:44:12;;;;;;;8.98;5.07;;;;;;;;;;4992152;28;20029;-68
2022/01/19 03:46:46;;;;;;;7.32;3.55;;;;;;;;;;4991830;28;20450;-67
2022/01/19 03:49:13;;;;;;;5.75;3.50;;;;;;;;;;4991820;28;20050;-67
2022/01/19 03:51:38;;;;;;;11.43;4.88;;;;;;;;;;4991857;28;20030;-68
2022/01/19 03:54:03;;;;;;;8.55;4.20;;;;;;;;;;4992085;28;20453;-68
2022/01/19 03:56:29;;;;;;;9.90;4.75;;;;;;;;;;4991371;28;20026;-68
2022/01/19 03:58:54;;;;;;;7.80;5.00;;;;;;;;;;4990542;28;20109;-67
2022/01/19 04:01:19;;;;;;;8.50;4.60;;;;;;;;;;4991333;28;20074;-67
2022/01/19 04:03:58;;;;;;;3.33;2.08;;;;;;;;;;4991310;28;20631;-68
2022/01/19 04:06:27;;;;;;;6.70;3.05;;;;;;;;;;4983474;28;20109;-68
2022/01/19 04:08:53;;;;;;;6.88;4.60;;;;;;;;;;4997982;28;20052;-68
2022/01/19 04:11:20;;;;;;;6.82;4.03;;;;;;;;;;4990880;28;20030;-68
2022/01/19 04:16:29;;;;;;;7.20;4.28;;;;;;;;;;4987300;28;20052;-67
2022/01/19 04:19:07;;;;;;;5.35;2.90;;;;;;;;;;4990426;28;20053;-68
2022/01/19 04:21:32;;;;;;;4.38;3.17;;;;;;;;;;4990958;28;20018;-67
2022/01/19 04:23:57;;;;;;;10.15;4.97;;;;;;;;;;4991626;28;20025;-67
2022/01/19 04:26:23;;;;;;;6.53;4.55;;;;;;;;;;4988154;28;20094;-68
2022/01/19 04:28:48;;;;;;;11.43;4.97;;;;;;;;;;4988309;28;20033;-68
2022/01/19 04:31:13;;;;;;;9.25;3.53;;;;;;;;;;4989435;28;20049;-68
2022/01/19 04:33:42;;;;;;;16.70;5.72;;;;;;;;;;4997186;28;20026;-68
2022/01/19 04:36:26;;;;;;;5.03;3.73;;;;;;;;;;4988349;28;20482;-67
2022/01/19 04:39:21;;;;;;;4.28;2.55;;;;;;;;;;4989089;28;20293;-68
2022/01/19 05:03:30;;;;;;;2.85;1.77;;;;;;;;;;4987743;28;20061;-69
2022/01/19 05:08:40;;;;;;;3.15;2.25;;;;;;;;;;4987464;28;20790;-69
2022/01/19 05:13:52;;;;;;;4.72;2.90;;;;;;;;;;4988514;28;20040;-67
2022/01/19 05:16:21;;;;;;;4.63;3.10;;;;;;;;;;4988161;28;20514;-68
2022/01/19 05:18:47;;;;;;;3.38;2.63;;;;;;;;;;4990911;28;20037;-68
2022/01/19 05:21:12;;;;;;;2.10;1.45;;;;;;;;;;4991708;28;20463;-69
2022/01/19 05:23:37;;;;;;;5.07;2.60;;;;;;;;;;4993464;28;20026;-69
2022/01/19 05:26:03;;;;;;;5.25;2.72;;;;;;;;;;5001608;28;20023;-69
2022/01/19 05:28:28;;;;;;;4.55;3.10;;;;;;;;;;4991089;28;20038;-68
2022/01/19 05:30:53;;;;;;;4.65;2.95;;;;;;;;;;4991381;28;20062;-68
2022/01/19 05:33:18;;;;;;;2.60;1.63;;;;;;;;;;4992563;28;20085;-68
2022/01/19 05:35:44;;;;;;;2.35;1.63;;;;;;;;;;4994122;28;20033;-68
2022/01/19 05:38:09;;;;;;;6.65;3.30;;;;;;;;;;4997272;28;20022;-68
2022/01/19 05:40:34;;;;;;;4.13;2.17;;;;;;;;;;4996861;28;20049;-67
2022/01/19 05:42:59;;;;;;;5.82;2.08;;;;;;;;;;4993294;28;20368;-67
2022/01/19 05:45:25;;;;;;;7.63;3.33;;;;;;;;;;4994367;28;20487;-68
2022/01/19 05:47:50;;;;;;;6.70;2.78;;;;;;;;;;4997609;28;20046;-68
2022/01/19 05:50:15;;;;;;;3.45;2.30;;;;;;;;;;4992263;28;20046;-67
2022/01/19 05:52:40;;;;;;;5.20;2.65;;;;;;;;;;4990859;28;20583;-68
2022/01/19 05:55:06;;;;;;;2.95;1.92;;;;;;;;;;4991723;28;20058;-67
2022/01/19 05:57:32;;;;;;;4.38;2.90;;;;;;;;;;4991556;28;20026;-68
2022/01/19 05:59:57;;;;;;;2.92;2.17;;;;;;;;;;4990140;28;20069;-68
2022/01/19 06:02:23;;;;;;;5.07;2.72;;;;;;;;;;4995961;28;20018;-68
2022/01/19 06:04:49;;;;;;;3.42;1.65;;;;;;;;;;4997678;28;20031;-67
2022/01/19 06:07:15;;;;;;;7.55;3.72;;;;;;;;;;4994551;28;20027;-67
2022/01/19 06:12:09;;;;;;;4.95;3.40;;;;;;;;;;4991150;28;20052;-67
2022/01/19 06:14:36;;;;;;;3.50;2.10;;;;;;;;;;4991420;28;20031;-67
2022/01/19 06:17:02;;;;;;;3.42;2.60;;;;;;;;;;4990372;28;20499;-67
2022/01/19 06:19:27;;;;;;;2.88;2.13;;;;;;;;;;4991654;28;20038;-67
2022/01/19 06:21:52;;;;;;;3.72;2.20;;;;;;;;;;4991627;28;20018;-67
2022/01/19 06:24:18;;;;;;;7.43;3.10;;;;;;;;;;4990936;28;20029;-67
2022/01/19 06:26:43;;;;;;;4.15;2.75;;;;;;;;;;4990398;28;20470;-67
2022/01/19 06:29:08;;;;;;;3.47;2.78;;;;;;;;;;4990156;28;20057;-67
2022/01/19 06:31:33;;;;;;;2.40;1.80;;;;;;;;;;5003494;28;20033;-67
2022/01/19 06:33:58;;;;;;;3.28;1.75;;;;;;;;;;4989630;28;20080;-67
2022/01/19 06:36:24;;;;;;;3.42;1.50;;;;;;;;;;4990684;28;20053;-67
2022/01/19 06:38:49;;;;;;;5.15;2.33;;;;;;;;;;4990429;28;20018;-68
2022/01/19 06:41:14;;;;;;;4.90;2.67;;;;;;;;;;4990833;28;20045;-67
2022/01/19 06:43:39;;;;;;;5.80;2.97;;;;;;;;;;4990612;28;20050;-69
2022/01/19 06:46:04;;;;;;;6.25;3.88;;;;;;;;;;4989471;28;20064;-68
2022/01/19 06:48:30;;;;;;;5.78;2.42;;;;;;;;;;4989928;28;20030;-69
2022/01/19 06:50:55;;;;;;;3.22;2.35;;;;;;;;;;4992876;28;20019;-67
2022/01/19 06:53:20;;;;;;;2.20;2.00;;;;;;;;;;5000705;28;20045;-68
2022/01/19 06:55:46;;;;;;;6.05;2.95;;;;;;;;;;4982401;28;20034;-68
2022/01/19 06:58:11;;;;;;;5.65;2.50;;;;;;;;;;4988779;28;20049;-68
2022/01/19 07:00:36;;;;;;;8.85;3.58;;;;;;;;;;4992138;28;20434;-67
2022/01/19 07:03:01;;;;;;;4.38;3.17;;;;;;;;;;4988970;28;20027;-67
2022/01/19 07:05:27;;;;;;;2.33;1.48;;;;;;;;;;4977705;28;20018;-68
2022/01/19 07:07:56;;;;;;;6.50;3.75;;;;;;;;;;5008542;23;20042;-66
2022/01/19 07:10:21;;;;;;;7.30;4.27;;;;;;;;;;5027038;28;20388;-66
2022/01/19 07:12:46;;;;;;;7.55;4.57;;;;;;;;;;5029327;28;20029;-65
2022/01/19 07:15:12;;;;;;;6.93;4.88;;;;;;;;;;5016403;28;20010;-65
2022/01/19 07:17:37;;;;;;;5.35;3.35;;;;;;;;;;5009904;28;20026;-65
2022/01/19 07:20:03;;;;;;;8.48;3.45;;;;;;;;;;5008933;28;20152;-65
2022/01/19 07:22:28;;;;;;;7.55;4.57;;;;;;;;;;5010625;28;20036;-65
2022/01/19 07:24:53;;;;;;;7.28;4.57;;;;;;;;;;5010911;28;20026;-65
2022/01/19 07:27:18;;;;;;;5.18;2.80;;;;;;;;;;5009894;28;20018;-65
2022/01/19 07:29:44;;;;;;;8.10;4.67;;;;;;;;;;5002231;28;20044;-66
2022/01/19 07:32:11;;;;;;;6.65;4.90;;;;;;;;;;5011263;28;20309;-66
2022/01/19 07:34:37;;;;;;;5.32;2.90;;;;;;;;;;5010455;28;20113;-65
2022/01/19 07:37:03;;;;;;;7.93;5.10;;;;;;;;;;5011481;28;20093;-65
2022/01/19 07:39:28;;;;;;;8.23;5.88;;;;;;;;;;5009664;28;20034;-66
2022/01/19 07:41:55;;;;;;;8.75;4.10;;;;;;;;;;5010412;28;20064;-65
2022/01/19 07:44:20;;;;;;;9.23;4.85;;;;;;;;;;5011089;28;20020;-66
2022/01/19 07:46:45;;;;;;;7.13;4.75;;;;;;;;;;5010977;28;20102;-66
2022/01/19 07:49:11;;;;;;;7.63;4.68;;;;;;;;;;5010114;28;20383;-65
2022/01/19 07:51:36;;;;;;;6.15;4.25;;;;;;;;;;5010983;28;20098;-65
2022/01/19 07:54:01;;;;;;;11.10;6.20;;;;;;;;;;5011156;28;20049;-66
2022/01/19 07:56:26;;;;;;;11.63;5.40;;;;;;;;;;5009091;28;20105;-65
2022/01/19 07:58:51;;;;;;;13.90;5.22;;;;;;;;;;5010322;28;20026;-67
2022/01/19 08:01:18;;;;;;;11.63;5.15;;;;;;;;;;5010175;28;20028;-65
2022/01/19 08:03:44;;;;;;;10.13;4.97;;;;;;;;;;5010873;28;20064;-66
2022/01/19 08:06:09;;;;;;;8.43;5.10;;;;;;;;;;5009031;28;20026;-66
2022/01/19 08:08:35;;;;;;;9.82;5.55;;;;;;;;;;5008966;28;20088;-66
2022/01/19 08:11:01;;;;;;;8.43;6.03;;;;;;;;;;5010439;28;20386;-65
2022/01/19 08:13:26;;;;;;;13.50;8.63;;;;;;;;;;5010181;28;20017;-66
2022/01/19 08:15:51;;;;;;;11.63;7.95;;;;;;;;;;5010886;28;20026;-66
2022/01/19 08:18:16;;;;;;;20.13;8.10;;;;;;;;;;5010470;28;20486;-66
2022/01/19 08:20:43;;;;;;;11.43;7.75;;;;;;;;;;5006450;28;20049;-67
2022/01/19 08:23:09;;;;;;;7.68;4.78;;;;;;;;;;5007120;28;20022;-66
2022/01/19 08:25:34;;;;;;;8.32;5.55;;;;;;;;;;5008411;28;20036;-66
2022/01/19 08:27:59;;;;;;;7.88;5.32;;;;;;;;;;5010288;28;20022;-65
2022/01/19 08:30:24;;;;;;;16.67;10.00;;;;;;;;;;5010151;28;20033;-66
2022/01/19 08:32:49;;;;;;;9.25;6.65;;;;;;;;;;5008647;28;20087;-66
2022/01/19 08:35:15;;;;;;;11.52;6.75;;;;;;;;;;5009130;28;20084;-66
2022/01/19 08:37:40;;;;;;;10.73;7.18;;;;;;;;;;5009447;28;20097;-66
2022/01/19 08:40:06;;;;;;;12.02;7.57;;;;;;;;;;5009585;28;20101;-66
2022/01/19 08:42:33;;;;;;;10.15;6.38;;;;;;;;;;5010014;28;20026;-67
2022/01/19 08:45:04;;;;;;;7.03;4.68;;;;;;;;;;5010473;28;20447;-65
2022/01/19 08:47:29;;;;;;;9.93;5.78;;;;;;;;;;5009759;28;20021;-66
2022/01/19 08:49:54;;;;;;;11.68;7.93;;;;;;;;;;5009856;28;20437;-65
2022/01/19 08:52:20;;;;;;;8.35;5.45;;;;;;;;;;5007569;28;20405;-66
2022/01/19 08:54:47;;;;;;;10.30;6.72;;;;;;;;;;5013653;28;20718;-65
2022/01/19 08:57:12;;;;;;;13.50;6.93;;;;;;;;;;5014025;28;20025;-65
2022/01/19 08:59:37;;;;;;;13.40;6.20;;;;;;;;;;5014008;28;20472;-66
2022/01/19 09:02:03;;;;;;;10.98;6.95;;;;;;;;;;5013688;28;20030;-65
2022/01/19 09:04:28;;;;;;;12.60;8.43;;;;;;;;;;5014494;28;20121;-66
2022/01/19 09:06:53;;;;;;;9.15;6.63;;;;;;;;;;5014076;28;20063;-66
2022/01/19 09:09:19;;;;;;;11.93;6.57;;;;;;;;;;5013548;28;20168;-65
2022/01/19 09:11:44;;;;;;;12.52;6.95;;;;;;;;;;5014127;28;20022;-66
2022/01/19 09:14:10;;;;;;;9.43;6.28;;;;;;;;;;5013762;28;20026;-65
2022/01/19 09:16:35;;;;;;;15.88;7.78;;;;;;;;;;5014324;28;20024;-66
2022/01/19 09:19:01;;;;;;;18.25;8.50;;;;;;;;;;5013242;28;20478;-66
2022/01/19 09:21:26;;;;;;;16.15;8.07;;;;;;;;;;5014253;28;20018;-66
2022/01/19 09:23:51;;;;;;;12.57;8.45;;;;;;;;;;5014393;28;20399;-64
2022/01/19 09:26:16;;;;;;;15.02;8.98;;;;;;;;;;5014093;28;20099;-66
2022/01/19 09:28:41;;;;;;;16.33;9.65;;;;;;;;;;5011888;28;20029;-64
2022/01/19 09:31:11;;;;;;;13.20;7.53;;;;;;;;;;5014039;28;20401;-66
2022/01/19 09:33:37;;;;;;;14.98;8.48;;;;;;;;;;5014152;28;20496;-66
2022/01/19 09:38:28;;;;;;;24.40;9.95;;;;;;;;;;5013528;28;20018;-65
2022/01/19 09:40:54;;;;;;;22.63;10.95;;;;;;;;;;5013267;28;20520;-66
2022/01/19 09:43:22;;;;;;;20.85;10.65;;;;;;;;;;5012992;28;20026;-66
2022/01/19 09:45:48;;;;;;;22.02;10.93;;;;;;;;;;5012625;28;20022;-65
2022/01/19 09:48:13;;;;;;;14.38;7.43;;;;;;;;;;5013343;28;20433;-65
2022/01/19 09:50:38;;;;;;;13.27;8.95;;;;;;;;;;5013474;28;20014;-65
2022/01/19 09:53:04;;;;;;;16.00;9.77;;;;;;;;;;5013639;28;20032;-65
2022/01/19 09:55:30;;;;;;;18.02;9.82;;;;;;;;;;5013519;28;20033;-66
2022/01/19 09:57:55;;;;;;;9.27;5.38;;;;;;;;;;5012394;28;20021;-66
2022/01/19 10:00:20;;;;;;;17.40;8.30;;;;;;;;;;5013538;28;20018;-65
2022/01/19 10:03:05;;;;;;;19.42;10.70;;;;;;;;;;5013211;28;20036;-65
2022/01/19 10:05:30;;;;;;;16.45;9.65;;;;;;;;;;5005771;28;20029;-65
2022/01/19 10:07:59;;;;;;;19.75;9.57;;;;;;;;;;5012721;28;20414;-66
2022/01/19 10:10:24;;;;;;;20.85;10.43;;;;;;;;;;5012839;28;20526;-66
2022/01/19 10:18:19;;;;;;;24.60;10.00;;;;;;;;;;5012871;28;20249;-65
2022/01/19 10:20:46;;;;;;;20.75;10.73;;;;;;;;;;5010358;28;20022;-66
2022/01/19 10:23:33;;;;;;;17.42;10.02;;;;;;;;;;5012790;28;20092;-66
2022/01/19 10:25:59;;;;;;;7.90;4.47;;;;;;;;;;5011625;28;20026;-65
2022/01/19 10:28:24;;;;;;;14.52;8.75;;;;;;;;;;5012963;28;20026;-65
2022/01/19 10:30:49;;;;;;;20.10;11.25;;;;;;;;;;5012471;28;20022;-65
2022/01/19 10:33:18;;;;;;;18.52;10.32;;;;;;;;;;5007744;28;20022;-65
2022/01/19 10:35:45;;;;;;;25.00;13.07;;;;;;;;;;5012074;28;20620;-65
2022/01/19 10:38:14;;;;;;;24.52;12.20;;;;;;;;;;5012054;28;20542;-66
2022/01/19 10:40:40;;;;;;;20.92;11.40;;;;;;;;;;5012486;28;20072;-64
2022/01/19 10:43:24;;;;;;;19.05;8.85;;;;;;;;;;5012534;28;20386;-65
2022/01/19 10:45:49;;;;;;;22.08;12.48;;;;;;;;;;5012053;28;20045;-66
2022/01/19 10:48:28;;;;;;;13.60;7.43;;;;;;;;;;5012175;28;20551;-65
2022/01/19 10:51:04;;;;;;;14.97;7.87;;;;;;;;;;5012120;28;20033;-66
2022/01/19 10:53:30;;;;;;;22.90;11.85;;;;;;;;;;5011204;28;20034;-66
2022/01/19 10:55:55;;;;;;;22.50;12.57;;;;;;;;;;5010200;28;20061;-65
2022/01/19 10:58:21;;;;;;;20.58;11.40;;;;;;;;;;5010116;28;20034;-66
2022/01/19 11:00:52;;;;;;;25.73;11.85;;;;;;;;;;5010363;28;20022;-66
2022/01/19 11:03:27;;;;;;;31.88;12.35;;;;;;;;;;5011083;28;20018;-65
2022/01/19 11:05:57;;;;;;;26.83;12.88;;;;;;;;;;5008960;28;20472;-64
2022/01/19 11:08:23;;;;;;;25.42;14.60;;;;;;;;;;5010494;28;20022;-66
2022/01/19 11:10:50;;;;;;;25.02;13.52;;;;;;;;;;5009182;28;20057;-66
2022/01/19 11:13:28;;;;;;;27.35;15.20;;;;;;;;;;5010212;28;20387;-65
2022/01/19 11:15:53;;;;;;;25.48;12.38;;;;;;;;;;5010061;28;20538;-66
2022/01/19 11:18:21;;;;;;;25.13;13.80;;;;;;;;;;5010151;28;20064;-65
2022/01/19 11:20:47;;;;;;;24.65;15.23;;;;;;;;;;5010314;28;20053;-66
2022/01/19 11:23:24;;;;;;;28.33;15.57;;;;;;;;;;5010597;28;20045;-66
2022/01/19 11:25:51;;;;;;;26.80;16.05;;;;;;;;;;5009372;28;20026;-66
2022/01/19 11:28:26;;;;;;;21.02;12.43;;;;;;;;;;5010779;28;20022;-65
2022/01/19 11:30:53;;;;;;;32.15;14.85;;;;;;;;;;5010122;28;20029;-66
2022/01/19 11:33:28;;;;;;;25.15;14.05;;;;;;;;;;5010792;28;20026;-65
2022/01/19 11:35:54;;;;;;;23.40;11.02;;;;;;;;;;5010229;28;20018;-67
2022/01/19 11:38:28;;;;;;;27.15;13.85;;;;;;;;;;5009565;28;20173;-65
2022/01/19 11:40:53;;;;;;;17.70;8.60;;;;;;;;;;5008359;28;20550;-67
2022/01/19 11:43:21;;;;;;;32.58;15.35;;;;;;;;;;5010674;28;20026;-66
2022/01/19 11:45:46;;;;;;;17.75;6.63;;;;;;;;;;5008397;28;20014;-67
2022/01/19 11:48:20;;;;;;;19.95;12.13;;;;;;;;;;5010385;28;20390;-66
2022/01/19 11:50:46;;;;;;;23.13;13.73;;;;;;;;;;5008284;28;20128;-66
2022/01/19 11:53:12;;;;;;;22.50;13.02;;;;;;;;;;5011029;28;20010;-66
2022/01/19 11:55:39;;;;;;;25.30;13.48;;;;;;;;;;5007846;28;20102;-66
2022/01/19 11:58:12;;;;;;;23.05;12.57;;;;;;;;;;5009946;28;20351;-65
2022/01/19 12:00:37;;;;;;;22.90;13.05;;;;;;;;;;5009948;28;20014;-66
2022/01/19 12:03:15;;;;;;;23.35;13.48;;;;;;;;;;5009620;28;20018;-66
2022/01/19 12:05:41;;;;;;;20.80;10.80;;;;;;;;;;5009314;28;20519;-66
2022/01/19 12:08:25;;;;;;;16.08;8.60;;;;;;;;;;5009782;28;20120;-66
2022/01/19 12:10:55;;;;;;;18.45;10.52;;;;;;;;;;5009569;28;20019;-66
2022/01/19 12:16:12;;;;;;;17.08;9.15;;;;;;;;;;5008526;28;20041;-65
2022/01/19 12:18:40;;;;;;;24.98;12.38;;;;;;;;;;5009436;28;20112;-66
2022/01/19 12:21:05;;;;;;;27.98;14.15;;;;;;;;;;5009226;28;20022;-66
2022/01/19 12:23:31;;;;;;;14.80;7.57;;;;;;;;;;5009576;28;20486;-66
2022/01/19 12:25:58;;;;;;;23.95;12.23;;;;;;;;;;5008973;28;20052;-67
2022/01/19 12:28:38;;;;;;;14.00;8.43;;;;;;;;;;5009133;28;20025;-65
2022/01/19 12:31:22;;;;;;;27.92;8.25;;;;;;;;;;5008539;28;20028;-67
2022/01/19 12:34:02;;;;;;;23.70;12.18;;;;;;;;;;5002547;28;20022;-66
2022/01/19 12:36:47;;;;;;;23.15;12.63;;;;;;;;;;5008887;28;20028;-66
2022/01/19 12:39:24;;;;;;;20.80;10.88;;;;;;;;;;5008957;28;20072;-67
2022/01/19 12:41:59;;;;;;;20.27;11.70;;;;;;;;;;5010045;28;20383;-66
2022/01/19 12:44:33;;;;;;;20.88;9.85;;;;;;;;;;5009319;28;20029;-68
2022/01/19 12:46:59;;;;;;;22.13;13.23;;;;;;;;;;5010103;28;20029;-66
2022/01/19 12:49:25;;;;;;;26.02;12.23;;;;;;;;;;5008946;28;20018;-65
2022/01/19 12:51:50;;;;;;;20.20;10.35;;;;;;;;;;5009329;28;20475;-67
2022/01/19 12:54:24;;;;;;;19.85;8.80;;;;;;;;;;5009528;28;20034;-66
2022/01/19 12:56:57;;;;;;;19.92;11.30;;;;;;;;;;5008890;28;20041;-66
2022/01/19 12:59:22;;;;;;;22.42;11.57;;;;;;;;;;5008449;28;20148;-65
2022/01/19 13:01:47;;;;;;;24.63;12.80;;;;;;;;;;5008804;28;20057;-65
2022/01/19 13:04:25;;;;;;;31.83;12.30;;;;;;;;;;5008970;28;20115;-67
2022/01/19 13:06:53;;;;;;;23.42;12.30;;;;;;;;;;5008886;28;20101;-68
2022/01/19 13:09:26;;;;;;;17.92;9.95;;;;;;;;;;5016715;23;20803;-68
2022/01/19 13:11:54;;;;;;;26.55;12.52;;;;;;;;;;4992014;28;20141;-68
2022/01/19 13:14:19;;;;;;;27.45;14.00;;;;;;;;;;4989497;28;20072;-69
2022/01/19 13:16:48;;;;;;;18.95;7.40;;;;;;;;;;4990568;28;20558;-68
2022/01/19 13:19:26;;;;;;;24.55;12.40;;;;;;;;;;5005921;28;20119;-69
2022/01/19 13:22:08;;;;;;;26.90;13.85;;;;;;;;;;4990390;28;20037;-68
2022/01/19 13:24:36;;;;;;;27.17;15.68;;;;;;;;;;4989373;28;20379;-69
2022/01/19 13:27:04;;;;;;;24.20;12.32;;;;;;;;;;4987480;28;20058;-68
2022/01/19 13:29:33;;;;;;;21.38;11.73;;;;;;;;;;4989511;28;20022;-68
2022/01/19 13:32:01;;;;;;;23.00;12.65;;;;;;;;;;4990013;28;20141;-68
2022/01/19 13:34:27;;;;;;;32.88;13.27;;;;;;;;;;4989487;28;20057;-68
2022/01/19 13:36:56;;;;;;;26.85;12.85;;;;;;;;;;4987613;28;20026;-70
2022/01/19 13:39:23;;;;;;;32.58;14.98;;;;;;;;;;4991463;28;20022;-68
2022/01/19 13:41:51;;;;;;;26.27;11.73;;;;;;;;;;4992531;28;20029;-68
2022/01/19 13:44:20;;;;;;;17.50;7.80;;;;;;;;;;4993637;28;20639;-68
2022/01/19 13:46:46;;;;;;;21.80;8.75;;;;;;;;;;4993746;28;20026;-68
2022/01/19 13:49:11;;;;;;;29.20;14.05;;;;;;;;;;4993454;28;20024;-68
2022/01/19 13:51:40;;;;;;;21.75;10.13;;;;;;;;;;4993964;28;20079;-68
2022/01/19 13:54:06;;;;;;;16.70;7.82;;;;;;;;;;4994034;28;20041;-67
2022/01/19 13:56:40;;;;;;;34.55;15.00;;;;;;;;;;4993416;28;20026;-68
2022/01/19 13:59:06;;;;;;;28.80;10.25;;;;;;;;;;4992574;28;20015;-68
2022/01/19 14:01:33;;;;;;;25.30;11.70;;;;;;;;;;4993548;28;20364;-69
2022/01/19 14:04:05;;;;;;;28.10;13.35;;;;;;;;;;4992994;28;20030;-68
2022/01/19 14:06:38;;;;;;;20.25;10.45;;;;;;;;;;4992710;28;20041;-69
2022/01/19 14:09:14;;;;;;;27.58;13.90;;;;;;;;;;4992801;28;20394;-68
2022/01/19 14:11:41;;;;;;;20.88;9.23;;;;;;;;;;4993412;28;20446;-68
2022/01/19 14:14:08;;;;;;;30.60;15.88;;;;;;;;;;4993671;28;20022;-68
2022/01/19 14:16:38;;;;;;;18.98;8.98;;;;;;;;;;4990652;28;20033;-68
2022/01/19 14:19:22;;;;;;;36.67;17.58;;;;;;;;;;4993494;28;20022;-68
2022/01/19 14:21:53;;;;;;;13.45;7.22;;;;;;;;;;4992349;28;20063;-68
2022/01/19 14:24:18;;;;;;;16.35;8.10;;;;;;;;;;4992409;28;20486;-68
2022/01/19 14:26:53;;;;;;;31.02;15.10;;;;;;;;;;4993065;28;20038;-68
2022/01/19 14:29:18;;;;;;;20.50;10.18;;;;;;;;;;4991545;28;20041;-68
2022/01/19 14:31:51;;;;;;;28.35;11.40;;;;;;;;;;4992306;28;20026;-68
2022/01/19 14:34:31;;;;;;;28.63;11.40;;;;;;;;;;4993396;28;20041;-68
2022/01/19 14:37:14;;;;;;;31.80;14.82;;;;;;;;;;4993306;28;20383;-68
2022/01/19 14:39:53;;;;;;;30.17;12.45;;;;;;;;;;4990987;28;20629;-68
2022/01/19 14:42:24;;;;;;;18.35;8.90;;;;;;;;;;4992792;28;20026;-68
2022/01/19 14:45:01;;;;;;;24.95;10.25;;;;;;;;;;4992922;28;20014;-68
2022/01/19 14:47:37;;;;;;;34.80;15.73;;;;;;;;;;4992714;28;20101;-68
2022/01/19 14:50:23;;;;;;;45.40;18.90;;;;;;;;;;4992235;28;20023;-69
2022/01/19 14:52:49;;;;;;;28.48;14.30;;;;;;;;;;4992775;28;20022;-68
2022/01/19 14:55:18;;;;;;;33.95;15.27;;;;;;;;;;4992311;28;20053;-68
2022/01/19 14:57:44;;;;;;;37.33;16.90;;;;;;;;;;4991917;28;20490;-68
2022/01/19 15:00:10;;;;;;;34.63;18.13;;;;;;;;;;4992308;28;20057;-68
2022/01/19 15:02:35;;;;;;;24.63;12.68;;;;;;;;;;4991440;28;20068;-68
2022/01/19 15:05:00;;;;;;;30.15;14.10;;;;;;;;;;4992358;28;20030;-68
2022/01/19 15:07:26;;;;;;;48.38;19.27;;;;;;;;;;4991549;28;20335;-68
2022/01/19 15:09:51;;;;;;;34.63;15.25;;;;;;;;;;4991520;28;20113;-68
2022/01/19 15:12:16;;;;;;;39.80;15.93;;;;;;;;;;4991862;28;20382;-69
2022/01/19 15:14:41;;;;;;;28.65;10.70;;;;;;;;;;4992585;28;20045;-68
2022/01/19 15:17:11;;;;;;;41.92;17.17;;;;;;;;;;4992054;28;20050;-68
2022/01/19 15:19:36;;;;;;;39.53;19.38;;;;;;;;;;4990892;28;20061;-68
2022/01/19 15:22:01;;;;;;;36.92;15.98;;;;;;;;;;4991442;28;20050;-68
2022/01/19 15:24:26;;;;;;;37.13;15.23;;;;;;;;;;4989917;28;20573;-68
2022/01/19 15:26:51;;;;;;;43.33;19.50;;;;;;;;;;4991894;28;20033;-68
2022/01/19 15:29:17;;;;;;;39.58;20.27;;;;;;;;;;4993821;28;20022;-68
2022/01/19 15:31:44;;;;;;;40.00;19.38;;;;;;;;;;4990192;28;20031;-68
2022/01/19 15:34:09;;;;;;;32.13;13.73;;;;;;;;;;4988703;28;20022;-68
2022/01/19 15:36:34;;;;;;;28.45;11.63;;;;;;;;;;4990953;28;20391;-69
2022/01/19 15:39:02;;;;;;;40.55;14.93;;;;;;;;;;4991233;28;20418;-68
2022/01/19 15:41:27;;;;;;;36.50;16.83;;;;;;;;;;4991240;28;20058;-68
2022/01/19 15:43:52;;;;;;;36.45;16.45;;;;;;;;;;4991654;28;20440;-68
2022/01/19 15:46:17;;;;;;;34.35;14.30;;;;;;;;;;4991457;28;20034;-69
2022/01/19 15:48:44;;;;;;;34.08;13.30;;;;;;;;;;4991212;28;20030;-68
2022/01/19 15:51:09;;;;;;;31.05;15.13;;;;;;;;;;4991370;28;20053;-70
2022/01/19 15:53:35;;;;;;;28.35;13.95;;;;;;;;;;4991340;28;20415;-68
2022/01/19 15:56:01;;;;;;;33.70;16.05;;;;;;;;;;4991622;28;20028;-69
2022/01/19 15:58:26;;;;;;;38.88;15.02;;;;;;;;;;4990651;28;20064;-68
2022/01/19 16:00:52;;;;;;;38.60;18.02;;;;;;;;;;4991415;28;20140;-68
2022/01/19 16:03:17;;;;;;;43.58;22.88;;;;;;;;;;4989737;28;20030;-68